sensor_id;sensor_type;location;lat;lon;timestamp;temperature;humidity
21061;DHT22;10689;50.836;3.266;2022-12-18T00:01:19;-3.00;99.90
21061;DHT22;10689;50.836;3.266;2022-12-18T00:03:46;-3.10;99.90
21061;DHT22;10689;50.836;3.266;2022-12-18T00:06:13;-3.20;99.90
21061;DHT22;10689;50.836;3.266;2022-12-18T00:08:42;-3.30;99.90
21061;DHT22;10689;50.836;3.266;2022-12-18T00:11:11;-3.40;99.90
21061;DHT22;10689;50.836;3.266;2022-12-18T00:13:37;-3.30;99.90
21061;DHT22;10689;50.836;3.266;2022-12-18T00:16:16;-3.20;99.90
21061;DHT22;10689;50.836;3.266;2022-12-18T00:18:42;-3.40;99.90
21061;DHT22;10689;50.836;3.266;2022-12-18T00:21:11;-3.40;99.90
21061;DHT22;10689;50.836;3.266;2022-12-18T00:23:38;-3.40;99.90
21061;DHT22;10689;50.836;3.266;2022-12-18T00:26:08;-3.40;99.90
21061;DHT22;10689;50.836;3.266;2022-12-18T00:28:38;-3.40;99.90
21061;DHT22;10689;50.836;3.266;2022-12-18T00:31:09;-3.20;99.90
21061;DHT22;10689;50.836;3.266;2022-12-18T00:33:37;-3.30;99.90
21061;DHT22;10689;50.836;3.266;2022-12-18T00:38:35;-3.30;99.90
21061;DHT22;10689;50.836;3.266;2022-12-18T00:41:01;-3.40;99.90
21061;DHT22;10689;50.836;3.266;2022-12-18T00:43:27;-3.50;99.90
21061;DHT22;10689;50.836;3.266;2022-12-18T00:45:53;-3.50;99.90
21061;DHT22;10689;50.836;3.266;2022-12-18T00:48:20;-3.60;99.90
21061;DHT22;10689;50.836;3.266;2022-12-18T00:50:48;-3.50;99.90
21061;DHT22;10689;50.836;3.266;2022-12-18T00:53:15;-3.60;99.90
21061;DHT22;10689;50.836;3.266;2022-12-18T00:55:41;-3.80;99.90
21061;DHT22;10689;50.836;3.266;2022-12-18T00:58:08;-3.70;99.90
21061;DHT22;10689;50.836;3.266;2022-12-18T01:00:36;-3.80;99.90
21061;DHT22;10689;50.836;3.266;2022-12-18T01:03:05;-3.80;99.90
21061;DHT22;10689;50.836;3.266;2022-12-18T01:05:31;-3.80;99.90
21061;DHT22;10689;50.836;3.266;2022-12-18T01:07:57;-3.80;99.90
21061;DHT22;10689;50.836;3.266;2022-12-18T01:10:23;-3.90;99.90
21061;DHT22;10689;50.836;3.266;2022-12-18T01:12:49;-3.80;99.90
21061;DHT22;10689;50.836;3.266;2022-12-18T01:15:16;-3.90;99.90
21061;DHT22;10689;50.836;3.266;2022-12-18T01:17:44;-3.90;99.90
21061;DHT22;10689;50.836;3.266;2022-12-18T01:20:12;-4.00;99.90
21061;DHT22;10689;50.836;3.266;2022-12-18T01:22:38;-4.00;99.90
21061;DHT22;10689;50.836;3.266;2022-12-18T01:25:05;-4.10;99.90
21061;DHT22;10689;50.836;3.266;2022-12-18T01:27:32;-4.30;99.90
21061;DHT22;10689;50.836;3.266;2022-12-18T01:29:59;-4.30;99.90
21061;DHT22;10689;50.836;3.266;2022-12-18T01:32:24;-4.30;99.90
21061;DHT22;10689;50.836;3.266;2022-12-18T01:34:50;-4.40;99.90
21061;DHT22;10689;50.836;3.266;2022-12-18T01:37:16;-4.30;99.90
21061;DHT22;10689;50.836;3.266;2022-12-18T01:39:44;-4.30;99.90
21061;DHT22;10689;50.836;3.266;2022-12-18T01:42:12;-4.30;99.90
21061;DHT22;10689;50.836;3.266;2022-12-18T01:47:50;-4.30;99.90
21061;DHT22;10689;50.836;3.266;2022-12-18T01:50:39;-4.30;99.90
21061;DHT22;10689;50.836;3.266;2022-12-18T01:53:20;-4.20;99.90
21061;DHT22;10689;50.836;3.266;2022-12-18T01:55:49;-4.20;99.90
21061;DHT22;10689;50.836;3.266;2022-12-18T01:58:22;-4.30;99.90
21061;DHT22;10689;50.836;3.266;2022-12-18T02:00:49;-4.20;99.90
21061;DHT22;10689;50.836;3.266;2022-12-18T02:03:15;-4.20;99.90
21061;DHT22;10689;50.836;3.266;2022-12-18T02:08:19;-4.00;99.90
21061;DHT22;10689;50.836;3.266;2022-12-18T02:11:16;-3.90;99.90
21061;DHT22;10689;50.836;3.266;2022-12-18T02:16:44;-3.80;99.90
21061;DHT22;10689;50.836;3.266;2022-12-18T02:28:00;-4.00;99.90
21061;DHT22;10689;50.836;3.266;2022-12-18T02:30:30;-4.10;99.90
21061;DHT22;10689;50.836;3.266;2022-12-18T02:32:57;-4.10;99.90
21061;DHT22;10689;50.836;3.266;2022-12-18T02:35:28;-4.00;99.90
21061;DHT22;10689;50.836;3.266;2022-12-18T02:37:55;-4.00;99.90
21061;DHT22;10689;50.836;3.266;2022-12-18T02:40:23;-4.20;99.90
21061;DHT22;10689;50.836;3.266;2022-12-18T02:42:49;-4.20;99.90
21061;DHT22;10689;50.836;3.266;2022-12-18T02:45:15;-4.20;99.90
21061;DHT22;10689;50.836;3.266;2022-12-18T02:47:45;-4.10;99.90
21061;DHT22;10689;50.836;3.266;2022-12-18T02:50:37;-4.20;99.90
21061;DHT22;10689;50.836;3.266;2022-12-18T02:56:01;-4.10;99.90
21061;DHT22;10689;50.836;3.266;2022-12-18T02:58:51;-4.20;99.90
21061;DHT22;10689;50.836;3.266;2022-12-18T03:01:38;-4.20;99.90
21061;DHT22;10689;50.836;3.266;2022-12-18T03:04:20;-4.10;99.90
21061;DHT22;10689;50.836;3.266;2022-12-18T03:06:54;-3.90;99.90
21061;DHT22;10689;50.836;3.266;2022-12-18T03:09:31;-3.90;99.90
21061;DHT22;10689;50.836;3.266;2022-12-18T03:12:08;-4.00;99.90
21061;DHT22;10689;50.836;3.266;2022-12-18T03:15:08;-4.00;99.90
21061;DHT22;10689;50.836;3.266;2022-12-18T03:17:40;-4.00;99.90
21061;DHT22;10689;50.836;3.266;2022-12-18T03:20:14;-3.90;99.90
21061;DHT22;10689;50.836;3.266;2022-12-18T03:22:43;-4.00;99.90
21061;DHT22;10689;50.836;3.266;2022-12-18T03:25:11;-4.00;99.90
21061;DHT22;10689;50.836;3.266;2022-12-18T03:27:42;-3.90;99.90
21061;DHT22;10689;50.836;3.266;2022-12-18T03:30:12;-3.70;99.90
21061;DHT22;10689;50.836;3.266;2022-12-18T03:32:52;-3.70;99.90
21061;DHT22;10689;50.836;3.266;2022-12-18T03:35:26;-3.80;99.90
21061;DHT22;10689;50.836;3.266;2022-12-18T03:37:54;-3.70;99.90
21061;DHT22;10689;50.836;3.266;2022-12-18T03:40:35;-3.60;99.90
21061;DHT22;10689;50.836;3.266;2022-12-18T03:43:13;-3.70;99.90
21061;DHT22;10689;50.836;3.266;2022-12-18T03:45:47;-3.80;99.90
21061;DHT22;10689;50.836;3.266;2022-12-18T03:48:42;-4.00;99.90
21061;DHT22;10689;50.836;3.266;2022-12-18T03:51:09;-4.20;99.90
21061;DHT22;10689;50.836;3.266;2022-12-18T03:53:53;-4.10;99.90
21061;DHT22;10689;50.836;3.266;2022-12-18T03:56:23;-4.10;99.90
21061;DHT22;10689;50.836;3.266;2022-12-18T03:58:51;-4.10;99.90
21061;DHT22;10689;50.836;3.266;2022-12-18T04:01:20;-4.00;99.90
21061;DHT22;10689;50.836;3.266;2022-12-18T04:03:49;-3.90;99.90
21061;DHT22;10689;50.836;3.266;2022-12-18T04:06:16;-4.00;99.90
21061;DHT22;10689;50.836;3.266;2022-12-18T04:08:43;-3.90;99.90
21061;DHT22;10689;50.836;3.266;2022-12-18T04:11:09;-3.90;99.90
21061;DHT22;10689;50.836;3.266;2022-12-18T04:13:37;-3.90;99.90
21061;DHT22;10689;50.836;3.266;2022-12-18T04:16:04;-3.70;99.90
21061;DHT22;10689;50.836;3.266;2022-12-18T04:18:30;-3.80;99.90
21061;DHT22;10689;50.836;3.266;2022-12-18T04:20:59;-3.90;99.90
21061;DHT22;10689;50.836;3.266;2022-12-18T04:23:25;-3.90;99.90
21061;DHT22;10689;50.836;3.266;2022-12-18T04:25:51;-3.90;99.90
21061;DHT22;10689;50.836;3.266;2022-12-18T04:28:17;-4.00;99.90
21061;DHT22;10689;50.836;3.266;2022-12-18T04:30:43;-4.00;99.90
21061;DHT22;10689;50.836;3.266;2022-12-18T04:33:13;-4.10;99.90
21061;DHT22;10689;50.836;3.266;2022-12-18T04:35:42;-4.10;99.90
21061;DHT22;10689;50.836;3.266;2022-12-18T04:38:09;-4.10;99.90
21061;DHT22;10689;50.836;3.266;2022-12-18T04:40:38;-4.00;99.90
21061;DHT22;10689;50.836;3.266;2022-12-18T04:43:04;-4.00;99.90
21061;DHT22;10689;50.836;3.266;2022-12-18T04:45:30;-4.00;99.90
21061;DHT22;10689;50.836;3.266;2022-12-18T04:47:59;-4.00;99.90
21061;DHT22;10689;50.836;3.266;2022-12-18T04:50:26;-4.00;99.90
21061;DHT22;10689;50.836;3.266;2022-12-18T04:52:52;-4.20;99.90
21061;DHT22;10689;50.836;3.266;2022-12-18T04:55:19;-4.20;99.90
21061;DHT22;10689;50.836;3.266;2022-12-18T04:57:45;-4.10;99.90
21061;DHT22;10689;50.836;3.266;2022-12-18T05:00:11;-4.10;99.90
21061;DHT22;10689;50.836;3.266;2022-12-18T05:02:37;-4.20;99.90
21061;DHT22;10689;50.836;3.266;2022-12-18T05:05:03;-4.20;99.90
21061;DHT22;10689;50.836;3.266;2022-12-18T05:07:29;-4.20;99.90
21061;DHT22;10689;50.836;3.266;2022-12-18T05:09:55;-4.20;99.90
21061;DHT22;10689;50.836;3.266;2022-12-18T05:12:21;-4.30;99.90
21061;DHT22;10689;50.836;3.266;2022-12-18T05:14:47;-4.40;99.90
21061;DHT22;10689;50.836;3.266;2022-12-18T05:17:13;-4.50;99.90
21061;DHT22;10689;50.836;3.266;2022-12-18T05:19:38;-4.60;99.90
21061;DHT22;10689;50.836;3.266;2022-12-18T05:22:04;-4.70;99.90
21061;DHT22;10689;50.836;3.266;2022-12-18T05:24:30;-4.70;99.90
21061;DHT22;10689;50.836;3.266;2022-12-18T05:26:56;-4.70;99.90
21061;DHT22;10689;50.836;3.266;2022-12-18T05:29:22;-4.60;99.90
21061;DHT22;10689;50.836;3.266;2022-12-18T05:31:51;-4.60;99.90
21061;DHT22;10689;50.836;3.266;2022-12-18T05:34:16;-4.60;99.90
21061;DHT22;10689;50.836;3.266;2022-12-18T05:36:42;-4.60;99.90
21061;DHT22;10689;50.836;3.266;2022-12-18T05:39:10;-4.50;99.90
21061;DHT22;10689;50.836;3.266;2022-12-18T05:41:35;-4.50;99.90
21061;DHT22;10689;50.836;3.266;2022-12-18T05:44:02;-4.50;99.90
21061;DHT22;10689;50.836;3.266;2022-12-18T05:46:27;-4.40;99.90
21061;DHT22;10689;50.836;3.266;2022-12-18T05:48:53;-4.40;99.90
21061;DHT22;10689;50.836;3.266;2022-12-18T05:51:21;-4.40;99.90
21061;DHT22;10689;50.836;3.266;2022-12-18T05:53:48;-4.40;99.90
21061;DHT22;10689;50.836;3.266;2022-12-18T05:56:19;-4.50;99.90
21061;DHT22;10689;50.836;3.266;2022-12-18T05:58:46;-4.50;99.90
21061;DHT22;10689;50.836;3.266;2022-12-18T06:01:17;-4.50;99.90
21061;DHT22;10689;50.836;3.266;2022-12-18T06:03:44;-4.60;99.90
21061;DHT22;10689;50.836;3.266;2022-12-18T06:06:30;-4.50;99.90
21061;DHT22;10689;50.836;3.266;2022-12-18T06:08:59;-4.50;99.90
21061;DHT22;10689;50.836;3.266;2022-12-18T06:11:27;-4.50;99.90
21061;DHT22;10689;50.836;3.266;2022-12-18T06:13:54;-4.50;99.90
21061;DHT22;10689;50.836;3.266;2022-12-18T06:16:20;-4.40;99.90
21061;DHT22;10689;50.836;3.266;2022-12-18T06:18:46;-4.30;99.90
21061;DHT22;10689;50.836;3.266;2022-12-18T06:21:12;-4.30;99.90
21061;DHT22;10689;50.836;3.266;2022-12-18T06:23:39;-4.20;99.90
21061;DHT22;10689;50.836;3.266;2022-12-18T06:26:08;-4.30;99.90
21061;DHT22;10689;50.836;3.266;2022-12-18T06:28:35;-4.30;99.90
21061;DHT22;10689;50.836;3.266;2022-12-18T06:31:03;-3.90;99.90
21061;DHT22;10689;50.836;3.266;2022-12-18T06:33:29;-3.80;99.90
21061;DHT22;10689;50.836;3.266;2022-12-18T06:36:06;-3.80;99.90
21061;DHT22;10689;50.836;3.266;2022-12-18T06:38:38;-3.70;99.90
21061;DHT22;10689;50.836;3.266;2022-12-18T06:41:14;-3.60;99.90
21061;DHT22;10689;50.836;3.266;2022-12-18T06:43:40;-3.60;99.90
21061;DHT22;10689;50.836;3.266;2022-12-18T06:46:11;-3.50;99.90
21061;DHT22;10689;50.836;3.266;2022-12-18T06:48:41;-3.50;99.90
21061;DHT22;10689;50.836;3.266;2022-12-18T06:51:07;-3.50;99.90
21061;DHT22;10689;50.836;3.266;2022-12-18T06:53:33;-3.60;99.90
21061;DHT22;10689;50.836;3.266;2022-12-18T06:56:04;-3.50;99.90
21061;DHT22;10689;50.836;3.266;2022-12-18T06:58:30;-3.50;99.90
21061;DHT22;10689;50.836;3.266;2022-12-18T07:01:03;-3.50;99.90
21061;DHT22;10689;50.836;3.266;2022-12-18T07:03:29;-3.50;99.90
21061;DHT22;10689;50.836;3.266;2022-12-18T07:05:55;-3.50;99.90
21061;DHT22;10689;50.836;3.266;2022-12-18T07:08:21;-3.60;99.90
21061;DHT22;10689;50.836;3.266;2022-12-18T07:10:47;-3.60;99.90
21061;DHT22;10689;50.836;3.266;2022-12-18T07:13:15;-3.60;99.90
21061;DHT22;10689;50.836;3.266;2022-12-18T07:15:43;-3.60;99.90
21061;DHT22;10689;50.836;3.266;2022-12-18T07:18:10;-3.60;99.90
21061;DHT22;10689;50.836;3.266;2022-12-18T07:20:37;-3.40;99.90
21061;DHT22;10689;50.836;3.266;2022-12-18T07:23:11;-3.50;99.90
21061;DHT22;10689;50.836;3.266;2022-12-18T07:25:39;-3.50;99.90
21061;DHT22;10689;50.836;3.266;2022-12-18T07:28:06;-3.40;99.90
21061;DHT22;10689;50.836;3.266;2022-12-18T07:30:32;-3.30;99.90
21061;DHT22;10689;50.836;3.266;2022-12-18T07:32:57;-3.30;99.90
21061;DHT22;10689;50.836;3.266;2022-12-18T07:35:23;-3.30;99.90
21061;DHT22;10689;50.836;3.266;2022-12-18T07:37:50;-3.40;99.90
21061;DHT22;10689;50.836;3.266;2022-12-18T07:40:16;-3.40;99.90
21061;DHT22;10689;50.836;3.266;2022-12-18T07:42:41;-3.40;99.90
21061;DHT22;10689;50.836;3.266;2022-12-18T07:45:08;-3.30;99.90
21061;DHT22;10689;50.836;3.266;2022-12-18T07:47:36;-3.30;99.90
21061;DHT22;10689;50.836;3.266;2022-12-18T07:50:03;-3.30;99.90
21061;DHT22;10689;50.836;3.266;2022-12-18T07:52:30;-3.30;99.90
21061;DHT22;10689;50.836;3.266;2022-12-18T07:54:58;-3.20;99.90
21061;DHT22;10689;50.836;3.266;2022-12-18T07:57:24;-3.00;99.90
21061;DHT22;10689;50.836;3.266;2022-12-18T07:59:50;-3.10;99.90
21061;DHT22;10689;50.836;3.266;2022-12-18T08:02:16;-3.00;99.90
21061;DHT22;10689;50.836;3.266;2022-12-18T08:04:42;-2.80;99.90
21061;DHT22;10689;50.836;3.266;2022-12-18T08:07:08;-2.80;99.90
21061;DHT22;10689;50.836;3.266;2022-12-18T08:09:34;-2.80;99.90
21061;DHT22;10689;50.836;3.266;2022-12-18T08:12:00;-2.60;99.90
21061;DHT22;10689;50.836;3.266;2022-12-18T08:14:27;-2.80;99.90
21061;DHT22;10689;50.836;3.266;2022-12-18T08:16:52;-2.90;99.90
21061;DHT22;10689;50.836;3.266;2022-12-18T08:19:18;-2.80;99.90
21061;DHT22;10689;50.836;3.266;2022-12-18T08:21:44;-2.70;99.90
21061;DHT22;10689;50.836;3.266;2022-12-18T08:24:11;-2.70;99.90
21061;DHT22;10689;50.836;3.266;2022-12-18T08:26:37;-2.60;99.90
21061;DHT22;10689;50.836;3.266;2022-12-18T08:29:03;-2.50;99.90
21061;DHT22;10689;50.836;3.266;2022-12-18T08:31:32;-2.50;99.90
21061;DHT22;10689;50.836;3.266;2022-12-18T08:33:58;-2.40;99.90
21061;DHT22;10689;50.836;3.266;2022-12-18T08:36:29;-2.40;99.90
21061;DHT22;10689;50.836;3.266;2022-12-18T08:38:55;-2.40;99.90
21061;DHT22;10689;50.836;3.266;2022-12-18T08:41:21;-2.30;99.90
21061;DHT22;10689;50.836;3.266;2022-12-18T08:43:47;-2.10;99.90
21061;DHT22;10689;50.836;3.266;2022-12-18T08:46:35;-2.00;99.90
21061;DHT22;10689;50.836;3.266;2022-12-18T08:49:02;-2.00;99.90
21061;DHT22;10689;50.836;3.266;2022-12-18T08:51:30;-1.90;99.90
21061;DHT22;10689;50.836;3.266;2022-12-18T08:53:56;-1.80;99.90
21061;DHT22;10689;50.836;3.266;2022-12-18T08:56:23;-1.80;99.90
21061;DHT22;10689;50.836;3.266;2022-12-18T08:58:54;-1.80;99.90
21061;DHT22;10689;50.836;3.266;2022-12-18T09:01:21;-1.70;99.90
21061;DHT22;10689;50.836;3.266;2022-12-18T09:03:48;-1.60;99.90
21061;DHT22;10689;50.836;3.266;2022-12-18T09:06:16;-1.60;99.90
21061;DHT22;10689;50.836;3.266;2022-12-18T09:08:43;-1.40;99.90
21061;DHT22;10689;50.836;3.266;2022-12-18T09:11:15;-1.40;99.90
21061;DHT22;10689;50.836;3.266;2022-12-18T09:13:43;-1.50;99.90
21061;DHT22;10689;50.836;3.266;2022-12-18T09:16:09;-1.50;99.90
21061;DHT22;10689;50.836;3.266;2022-12-18T09:18:38;-1.40;99.90
21061;DHT22;10689;50.836;3.266;2022-12-18T09:21:08;-1.40;99.90
21061;DHT22;10689;50.836;3.266;2022-12-18T09:23:34;-1.30;99.90
21061;DHT22;10689;50.836;3.266;2022-12-18T09:26:00;-1.30;99.90
21061;DHT22;10689;50.836;3.266;2022-12-18T09:28:28;-1.20;99.90
21061;DHT22;10689;50.836;3.266;2022-12-18T09:30:55;-1.20;99.90
21061;DHT22;10689;50.836;3.266;2022-12-18T09:33:20;-1.10;99.90
21061;DHT22;10689;50.836;3.266;2022-12-18T09:35:46;-1.00;99.90
21061;DHT22;10689;50.836;3.266;2022-12-18T09:38:15;-1.00;99.90
21061;DHT22;10689;50.836;3.266;2022-12-18T09:40:51;-0.90;99.90
21061;DHT22;10689;50.836;3.266;2022-12-18T09:43:23;-0.80;99.90
21061;DHT22;10689;50.836;3.266;2022-12-18T09:46:05;-0.70;99.90
21061;DHT22;10689;50.836;3.266;2022-12-18T09:48:38;-0.70;99.90
21061;DHT22;10689;50.836;3.266;2022-12-18T09:51:17;-0.60;99.90
21061;DHT22;10689;50.836;3.266;2022-12-18T09:53:50;-0.60;99.90
21061;DHT22;10689;50.836;3.266;2022-12-18T09:56:19;-0.50;99.90
21061;DHT22;10689;50.836;3.266;2022-12-18T09:58:56;-0.40;99.90
21061;DHT22;10689;50.836;3.266;2022-12-18T10:01:23;-0.40;99.90
21061;DHT22;10689;50.836;3.266;2022-12-18T10:03:51;-0.30;99.90
21061;DHT22;10689;50.836;3.266;2022-12-18T10:06:23;-0.20;99.90
21061;DHT22;10689;50.836;3.266;2022-12-18T10:17:13;0.20;99.90
21061;DHT22;10689;50.836;3.266;2022-12-18T10:20:02;0.10;99.90
21061;DHT22;10689;50.836;3.266;2022-12-18T10:25:06;0.10;99.90
21061;DHT22;10689;50.836;3.266;2022-12-18T10:27:39;0.20;99.90
21061;DHT22;10689;50.836;3.266;2022-12-18T10:30:17;0.30;99.90
21061;DHT22;10689;50.836;3.266;2022-12-18T10:32:43;0.20;99.90
21061;DHT22;10689;50.836;3.266;2022-12-18T10:35:24;0.10;99.90
21061;DHT22;10689;50.836;3.266;2022-12-18T10:38:21;0.00;99.90
21061;DHT22;10689;50.836;3.266;2022-12-18T10:41:00;0.00;99.90
21061;DHT22;10689;50.836;3.266;2022-12-18T10:43:39;-0.10;99.90
21061;DHT22;10689;50.836;3.266;2022-12-18T10:48:54;-0.20;99.90
21061;DHT22;10689;50.836;3.266;2022-12-18T10:53:57;-0.30;99.90
21061;DHT22;10689;50.836;3.266;2022-12-18T10:56:27;-0.30;99.90
21061;DHT22;10689;50.836;3.266;2022-12-18T10:59:05;-0.30;99.90
21061;DHT22;10689;50.836;3.266;2022-12-18T11:01:57;-0.30;99.90
21061;DHT22;10689;50.836;3.266;2022-12-18T11:04:28;-0.40;99.90
21061;DHT22;10689;50.836;3.266;2022-12-18T11:09:22;-0.30;99.90
21061;DHT22;10689;50.836;3.266;2022-12-18T11:11:53;-0.20;99.90
21061;DHT22;10689;50.836;3.266;2022-12-18T11:14:25;-0.20;99.90
21061;DHT22;10689;50.836;3.266;2022-12-18T11:16:52;-0.10;99.90
21061;DHT22;10689;50.836;3.266;2022-12-18T11:19:26;-0.10;99.90
21061;DHT22;10689;50.836;3.266;2022-12-18T11:21:54;0.10;99.90
21061;DHT22;10689;50.836;3.266;2022-12-18T11:24:32;0.20;99.90
21061;DHT22;10689;50.836;3.266;2022-12-18T11:27:04;0.20;99.90
21061;DHT22;10689;50.836;3.266;2022-12-18T11:29:39;0.20;99.90
21061;DHT22;10689;50.836;3.266;2022-12-18T11:34:44;0.20;99.90
21061;DHT22;10689;50.836;3.266;2022-12-18T11:37:12;0.10;99.90
21061;DHT22;10689;50.836;3.266;2022-12-18T11:39:59;0.20;99.90
21061;DHT22;10689;50.836;3.266;2022-12-18T11:42:44;0.20;99.90
21061;DHT22;10689;50.836;3.266;2022-12-18T11:47:51;0.20;99.90
21061;DHT22;10689;50.836;3.266;2022-12-18T11:50:23;0.20;99.90
21061;DHT22;10689;50.836;3.266;2022-12-18T11:52:50;0.30;99.90
21061;DHT22;10689;50.836;3.266;2022-12-18T12:00:39;0.30;99.90
21061;DHT22;10689;50.836;3.266;2022-12-18T12:22:45;0.80;99.90
21061;DHT22;10689;50.836;3.266;2022-12-18T12:25:25;0.70;99.90
21061;DHT22;10689;50.836;3.266;2022-12-18T12:38:40;0.50;99.90
21061;DHT22;10689;50.836;3.266;2022-12-18T12:41:12;0.60;99.90
21061;DHT22;10689;50.836;3.266;2022-12-18T12:44:00;0.50;99.90
21061;DHT22;10689;50.836;3.266;2022-12-18T12:46:27;0.40;99.90
21061;DHT22;10689;50.836;3.266;2022-12-18T12:48:59;0.50;99.90
21061;DHT22;10689;50.836;3.266;2022-12-18T12:51:35;0.40;99.90
21061;DHT22;10689;50.836;3.266;2022-12-18T12:54:13;0.40;99.90
21061;DHT22;10689;50.836;3.266;2022-12-18T13:00:00;0.40;99.90
21061;DHT22;10689;50.836;3.266;2022-12-18T13:05:24;0.20;99.90
21061;DHT22;10689;50.836;3.266;2022-12-18T13:07:54;0.20;99.90
21061;DHT22;10689;50.836;3.266;2022-12-18T13:10:41;0.20;99.90
21061;DHT22;10689;50.836;3.266;2022-12-18T13:15:46;0.10;99.90
21061;DHT22;10689;50.836;3.266;2022-12-18T13:18:23;0.10;99.90
21061;DHT22;10689;50.836;3.266;2022-12-18T13:25:58;0.20;99.90
21061;DHT22;10689;50.836;3.266;2022-12-18T13:31:59;0.10;99.90
21061;DHT22;10689;50.836;3.266;2022-12-18T13:34:14;0.00;99.90
21061;DHT22;10689;50.836;3.266;2022-12-18T13:36:41;0.00;99.90
21061;DHT22;10689;50.836;3.266;2022-12-18T13:41:41;0.20;99.90
21061;DHT22;10689;50.836;3.266;2022-12-18T13:44:13;0.30;99.90
21061;DHT22;10689;50.836;3.266;2022-12-18T13:46:47;0.30;99.90
21061;DHT22;10689;50.836;3.266;2022-12-18T13:51:42;0.20;99.90
21061;DHT22;10689;50.836;3.266;2022-12-18T13:54:34;0.20;99.90
21061;DHT22;10689;50.836;3.266;2022-12-18T13:57:01;0.30;99.90
21061;DHT22;10689;50.836;3.266;2022-12-18T13:59:38;0.40;99.90
21061;DHT22;10689;50.836;3.266;2022-12-18T14:02:15;0.50;99.90
21061;DHT22;10689;50.836;3.266;2022-12-18T14:04:45;0.60;99.90
21061;DHT22;10689;50.836;3.266;2022-12-18T14:07:17;0.70;99.90
21061;DHT22;10689;50.836;3.266;2022-12-18T14:09:50;0.80;99.90
21061;DHT22;10689;50.836;3.266;2022-12-18T14:12:22;0.90;99.90
21061;DHT22;10689;50.836;3.266;2022-12-18T14:17:58;1.00;99.90
21061;DHT22;10689;50.836;3.266;2022-12-18T14:20:26;1.00;99.90
21061;DHT22;10689;50.836;3.266;2022-12-18T14:22:56;1.10;99.90
21061;DHT22;10689;50.836;3.266;2022-12-18T14:25:25;1.00;99.90
21061;DHT22;10689;50.836;3.266;2022-12-18T14:30:40;0.90;99.90
21061;DHT22;10689;50.836;3.266;2022-12-18T14:33:13;0.80;99.90
21061;DHT22;10689;50.836;3.266;2022-12-18T14:38:39;0.90;99.90
21061;DHT22;10689;50.836;3.266;2022-12-18T14:41:16;0.80;99.90
21061;DHT22;10689;50.836;3.266;2022-12-18T14:43:44;0.70;99.90
21061;DHT22;10689;50.836;3.266;2022-12-18T14:48:51;0.60;99.90
21061;DHT22;10689;50.836;3.266;2022-12-18T14:51:19;0.60;99.90
21061;DHT22;10689;50.836;3.266;2022-12-18T14:53:46;0.50;99.90
21061;DHT22;10689;50.836;3.266;2022-12-18T14:56:29;0.60;99.90
21061;DHT22;10689;50.836;3.266;2022-12-18T14:58:59;0.60;99.90
21061;DHT22;10689;50.836;3.266;2022-12-18T15:01:32;0.50;99.90
21061;DHT22;10689;50.836;3.266;2022-12-18T15:04:01;0.50;99.90
21061;DHT22;10689;50.836;3.266;2022-12-18T15:06:34;0.50;99.90
21061;DHT22;10689;50.836;3.266;2022-12-18T15:09:03;0.40;99.90
21061;DHT22;10689;50.836;3.266;2022-12-18T15:11:46;0.30;99.90
21061;DHT22;10689;50.836;3.266;2022-12-18T15:14:32;0.40;99.90
21061;DHT22;10689;50.836;3.266;2022-12-18T15:17:00;0.30;99.90
21061;DHT22;10689;50.836;3.266;2022-12-18T15:19:37;0.50;99.90
21061;DHT22;10689;50.836;3.266;2022-12-18T15:22:03;0.50;99.90
21061;DHT22;10689;50.836;3.266;2022-12-18T15:24:31;0.60;99.90
21061;DHT22;10689;50.836;3.266;2022-12-18T15:26:59;0.60;99.90
21061;DHT22;10689;50.836;3.266;2022-12-18T15:29:25;0.50;99.90
21061;DHT22;10689;50.836;3.266;2022-12-18T15:32:05;0.60;99.90
21061;DHT22;10689;50.836;3.266;2022-12-18T15:34:38;0.60;99.90
21061;DHT22;10689;50.836;3.266;2022-12-18T15:37:04;0.70;99.90
21061;DHT22;10689;50.836;3.266;2022-12-18T15:39:30;0.70;99.90
21061;DHT22;10689;50.836;3.266;2022-12-18T15:41:56;0.80;99.90
21061;DHT22;10689;50.836;3.266;2022-12-18T15:44:40;0.80;99.90
21061;DHT22;10689;50.836;3.266;2022-12-18T15:47:13;0.80;99.90
21061;DHT22;10689;50.836;3.266;2022-12-18T15:49:39;0.90;99.90
21061;DHT22;10689;50.836;3.266;2022-12-18T15:52:05;0.90;99.90
21061;DHT22;10689;50.836;3.266;2022-12-18T15:54:31;0.80;99.90
21061;DHT22;10689;50.836;3.266;2022-12-18T15:57:15;0.90;99.90
21061;DHT22;10689;50.836;3.266;2022-12-18T15:59:55;0.90;99.90
21061;DHT22;10689;50.836;3.266;2022-12-18T16:02:26;1.10;99.90
21061;DHT22;10689;50.836;3.266;2022-12-18T16:04:53;1.10;99.90
21061;DHT22;10689;50.836;3.266;2022-12-18T16:07:19;1.10;99.90
21061;DHT22;10689;50.836;3.266;2022-12-18T16:09:46;1.10;99.90
21061;DHT22;10689;50.836;3.266;2022-12-18T16:12:19;1.10;99.90
21061;DHT22;10689;50.836;3.266;2022-12-18T16:14:46;1.20;99.90
21061;DHT22;10689;50.836;3.266;2022-12-18T16:17:13;1.20;99.90
21061;DHT22;10689;50.836;3.266;2022-12-18T16:19:52;1.20;99.90
21061;DHT22;10689;50.836;3.266;2022-12-18T16:22:42;1.30;99.90
21061;DHT22;10689;50.836;3.266;2022-12-18T16:25:19;1.30;99.90
21061;DHT22;10689;50.836;3.266;2022-12-18T16:27:45;1.30;99.90
21061;DHT22;10689;50.836;3.266;2022-12-18T16:30:21;1.30;99.90
21061;DHT22;10689;50.836;3.266;2022-12-18T16:32:51;1.30;99.90
21061;DHT22;10689;50.836;3.266;2022-12-18T16:35:17;1.30;99.90
21061;DHT22;10689;50.836;3.266;2022-12-18T16:37:43;1.30;99.90
21061;DHT22;10689;50.836;3.266;2022-12-18T16:40:15;1.30;99.90
21061;DHT22;10689;50.836;3.266;2022-12-18T16:42:42;1.30;99.90
21061;DHT22;10689;50.836;3.266;2022-12-18T16:45:14;1.30;99.90
21061;DHT22;10689;50.836;3.266;2022-12-18T16:47:40;1.40;99.90
21061;DHT22;10689;50.836;3.266;2022-12-18T16:50:19;1.40;99.90
21061;DHT22;10689;50.836;3.266;2022-12-18T16:52:45;1.40;99.90
21061;DHT22;10689;50.836;3.266;2022-12-18T16:55:11;1.50;99.90
21061;DHT22;10689;50.836;3.266;2022-12-18T16:57:40;1.50;99.90
21061;DHT22;10689;50.836;3.266;2022-12-18T17:00:10;1.50;99.90
21061;DHT22;10689;50.836;3.266;2022-12-18T17:02:36;1.50;99.90
21061;DHT22;10689;50.836;3.266;2022-12-18T17:05:02;1.50;99.90
21061;DHT22;10689;50.836;3.266;2022-12-18T17:07:28;1.50;99.90
21061;DHT22;10689;50.836;3.266;2022-12-18T17:09:54;1.50;99.90
21061;DHT22;10689;50.836;3.266;2022-12-18T17:12:20;1.60;99.90
21061;DHT22;10689;50.836;3.266;2022-12-18T17:14:49;1.50;99.90
21061;DHT22;10689;50.836;3.266;2022-12-18T17:17:15;1.50;99.90
21061;DHT22;10689;50.836;3.266;2022-12-18T17:19:43;1.40;99.90
21061;DHT22;10689;50.836;3.266;2022-12-18T17:22:09;1.40;99.90
21061;DHT22;10689;50.836;3.266;2022-12-18T17:24:35;1.40;99.90
21061;DHT22;10689;50.836;3.266;2022-12-18T17:27:01;1.40;99.90
21061;DHT22;10689;50.836;3.266;2022-12-18T17:29:27;1.30;99.90
21061;DHT22;10689;50.836;3.266;2022-12-18T17:31:52;1.40;99.90
21061;DHT22;10689;50.836;3.266;2022-12-18T17:34:19;1.40;99.90
21061;DHT22;10689;50.836;3.266;2022-12-18T17:36:46;1.50;99.90
21061;DHT22;10689;50.836;3.266;2022-12-18T17:39:19;1.60;99.90
21061;DHT22;10689;50.836;3.266;2022-12-18T17:41:46;1.60;99.90
21061;DHT22;10689;50.836;3.266;2022-12-18T17:44:12;1.60;99.90
21061;DHT22;10689;50.836;3.266;2022-12-18T17:46:40;1.60;99.90
21061;DHT22;10689;50.836;3.266;2022-12-18T17:49:12;1.60;99.90